Weather reports worldwide

Advertisment
Molina De Aragon, Spain (8232): temperature & dewpoint: 13.03.2019 10:00:00 - 19.03.2019 10:00:00 (CET)Molina De Aragon, Spain (8232): wind speed: 13.03.2019 10:00:00 - 19.03.2019 10:00:00 (CET)Molina De Aragon, Spain (8232): wind direction: 13.03.2019 10:00:00 - 19.03.2019 10:00:00 (CET)Molina De Aragon, Spain (8232): visibility: 13.03.2019 10:00:00 - 19.03.2019 10:00:00 (CET)Molina De Aragon, Spain (8232): precipitation: 13.03.2019 10:00:00 - 19.03.2019 10:00:00 (CET)
Date & Time tt [°C] td [°C] ff [km/h] ff [kn] dd vv [km] rr [mm]
19.03.2019 10:00:00 - - - - - - -
19.03.2019 09:00:00 3,9 0,1 13 7 NNW 20 0,0
19.03.2019 08:00:00 2,2 -0,4 4 2 W 20 0,0
19.03.2019 07:00:00 1,9 -0,7 4 2 W 20 -
19.03.2019 06:00:00 1,9 0,0 5 3 WNW 20 0,0
19.03.2019 05:00:00 2,0 -0,3 5 3 WNW 20 0,0
19.03.2019 04:00:00 2,7 -1,1 9 5 N 18 -
19.03.2019 03:00:00 2,4 -1,8 4 2 NNW 20 0,0
19.03.2019 02:00:00 1,8 -2,2 2 1 SE 20 0,0
19.03.2019 01:00:00 1,9 -2,2 4 2 E 20 -
19.03.2019 00:00:00 2,3 -2,4 5 3 E 20 0,0
18.03.2019 23:00:00 2,7 -3,4 4 2 SSE 20 0,0
18.03.2019 22:00:00 3,6 -3,7 11 6 N 20 -
18.03.2019 21:00:00 4,6 -4,4 5 3 N 20 0,0
18.03.2019 20:00:00 6,3 -4,8 9 5 N 20 0,0
18.03.2019 19:00:00 8,2 -6,0 11 6 NNW 19 -
18.03.2019 18:00:00 10,1 -6,3 11 6 N 19 0,0
18.03.2019 17:00:00 11,9 -6,1 9 5 NNW 20 0,0
18.03.2019 16:00:00 12,2 -4,0 9 5 NNE 20 -
18.03.2019 15:00:00 12,0 -4,2 11 6 N 19 0,0
18.03.2019 14:00:00 11,2 -5,3 15 8 N 20 0,0
18.03.2019 13:00:00 10,2 -2,5 11 6 NNW 20 -
18.03.2019 12:00:00 9,0 -1,7 11 6 N 20 0,0
18.03.2019 11:00:00 6,9 -1,8 9 5 NW 20 0,0
18.03.2019 10:00:00 4,1 -2,3 5 3 S 20 -
18.03.2019 09:00:00 0,9 -3,6 4 2 E 20 0,0
18.03.2019 08:00:00 -3,3 -5,3 2 1 ENE 20 0,0
18.03.2019 07:00:00 -3,0 -5,5 0 0 N 19 -
18.03.2019 06:00:00 -1,7 -5,0 2 1 ENE 20 0,0
18.03.2019 05:00:00 0,4 -4,3 2 1 NNE 20 0,0
18.03.2019 04:00:00 1,8 -2,0 4 2 ENE 20 -
18.03.2019 03:00:00 2,5 -1,5 8 4 ENE 20 0,0
18.03.2019 02:00:00 2,7 -0,9 5 3 ENE 20 0,0
18.03.2019 01:00:00 3,6 -0,6 9 5 ENE 20 -
18.03.2019 00:00:00 3,8 0,3 5 3 ENE 20 0,0
17.03.2019 23:00:00 5,2 0,8 4 2 NNE 20 0,0
17.03.2019 22:00:00 6,3 1,4 5 3 NE 20 -
17.03.2019 21:00:00 7,2 1,7 5 3 NE 20 0,0
17.03.2019 20:00:00 8,7 2,5 5 3 NNE 20 0,0
17.03.2019 19:00:00 10,2 2,8 11 6 ENE 19 -
17.03.2019 18:00:00 14,5 -0,4 13 7 NW 19 0,0
17.03.2019 17:00:00 17,5 -0,8 11 6 NW 20 0,0
17.03.2019 16:00:00 17,1 -1,6 15 8 NNW 20 -
17.03.2019 15:00:00 19,5 -4,8 13 7 W 20 0,0
17.03.2019 14:00:00 19,1 -1,4 11 6 WNW 19 0,0
17.03.2019 13:00:00 18,5 -0,9 9 5 W 20 -
17.03.2019 12:00:00 16,8 0,0 5 3 SW 20 0,0
17.03.2019 11:00:00 13,8 0,1 5 3 SW 20 0,0
17.03.2019 10:00:00 6,9 -0,8 2 1 WSW 19 -
17.03.2019 09:00:00 1,7 -2,4 4 2 S 20 0,0
17.03.2019 08:00:00 -2,3 -4,5 2 1 E 20 0,0
17.03.2019 07:00:00 -2,1 -4,6 2 1 E 20 -
17.03.2019 06:00:00 -1,5 -4,5 2 1 E 20 0,0
17.03.2019 05:00:00 -0,8 -4,0 2 1 ENE 20 0,0
17.03.2019 04:00:00 -0,3 -3,8 0 0 N 20 -
17.03.2019 03:00:00 0,6 -3,5 2 1 ESE 20 0,0
17.03.2019 02:00:00 1,5 -3,2 2 1 NE 20 0,0
17.03.2019 01:00:00 2,6 -2,7 2 1 ENE 20 -
17.03.2019 00:00:00 3,9 -2,5 2 1 E 20 0,0
16.03.2019 23:00:00 5,6 -2,5 2 1 ESE 20 0,0
16.03.2019 22:00:00 7,5 -2,3 2 1 ENE 20 -
16.03.2019 21:00:00 9,8 -2,5 4 2 E 20 0,0
16.03.2019 20:00:00 13,9 -2,1 2 1 NNW 20 0,0
16.03.2019 19:00:00 18,6 -1,8 8 4 WSW 20 -
16.03.2019 18:00:00 21,3 -1,9 13 7 WSW 20 0,0
16.03.2019 17:00:00 22,5 -2,3 13 7 WSW 20 0,0
16.03.2019 16:00:00 22,8 -1,4 13 7 WSW 19 -
16.03.2019 15:00:00 22,5 -2,3 13 7 WSW 20 0,0
16.03.2019 14:00:00 21,9 -2,8 15 8 SW 20 0,0
16.03.2019 13:00:00 21,2 -2,7 15 8 SW 17 -
16.03.2019 12:00:00 19,8 0,7 13 7 W 20 0,0
16.03.2019 11:00:00 13,0 1,6 2 1 WSW 20 0,0
16.03.2019 10:00:00 6,3 -2,1 2 1 W 20 -
16.03.2019 09:00:00 0,9 -3,0 2 1 SSE 20 0,0
16.03.2019 08:00:00 -3,1 -5,3 2 1 E 20 0,0
16.03.2019 07:00:00 -3,0 -5,5 2 1 E 20 -
16.03.2019 06:00:00 -2,5 -5,3 2 1 SSE 20 0,0
16.03.2019 05:00:00 -1,9 -4,9 2 1 E 20 0,0
16.03.2019 04:00:00 -1,4 -4,9 2 1 ESE 20 -
16.03.2019 03:00:00 -0,8 -4,9 2 1 E 20 0,0
16.03.2019 02:00:00 0,1 -4,5 2 1 E 20 0,0
16.03.2019 01:00:00 1,2 -4,3 2 1 ENE 20 -
16.03.2019 00:00:00 2,5 -4,3 2 1 ESE 20 0,0
15.03.2019 23:00:00 4,5 -3,8 2 1 NE 20 0,0
15.03.2019 22:00:00 6,7 -3,3 2 1 E 20 -
15.03.2019 21:00:00 9,8 -3,2 4 2 ESE 20 0,0
15.03.2019 20:00:00 13,7 -2,7 2 1 NNW 19 0,0
15.03.2019 19:00:00 19,2 -3,7 5 3 NNW 13 -
15.03.2019 18:00:00 21,9 -5,1 9 5 NNW 20 0,0
15.03.2019 17:00:00 23,0 -3,4 9 5 WSW 20 0,0
15.03.2019 16:00:00 23,1 -3,3 9 5 WNW 20 -
15.03.2019 15:00:00 22,5 -3,8 5 3 SW 20 0,0
15.03.2019 14:00:00 21,3 -0,1 5 3 W 20 0,0
15.03.2019 13:00:00 19,2 0,7 5 3 SW 20 -
15.03.2019 12:00:00 15,9 -0,8 5 3 S 20 0,0
15.03.2019 11:00:00 10,9 -0,9 2 1 E 20 0,0
15.03.2019 10:00:00 4,9 -2,2 2 1 SSW 20 -
15.03.2019 09:00:00 0,2 -3,5 2 1 SSE 20 0,0
15.03.2019 08:00:00 -3,4 -5,4 2 1 E 16 0,0
15.03.2019 07:00:00 -3,2 -5,7 2 1 E 20 -
15.03.2019 06:00:00 -2,6 -5,4 2 1 SE 20 0,0
15.03.2019 05:00:00 -2,4 -5,4 2 1 S 20 0,0
15.03.2019 04:00:00 -1,8 -5,1 4 2 E 20 -
15.03.2019 03:00:00 -1,3 -4,8 2 1 E 20 0,0
15.03.2019 02:00:00 -0,3 -4,7 2 1 NE 20 0,0
15.03.2019 01:00:00 0,3 -4,5 2 1 E 20 -
15.03.2019 00:00:00 0,9 -4,5 4 2 E 20 0,0
14.03.2019 23:00:00 1,6 -4,1 4 2 ENE 20 0,0
14.03.2019 22:00:00 3,3 -3,7 4 2 ESE 20 -
14.03.2019 21:00:00 5,9 -3,2 2 1 E 20 0,0
14.03.2019 20:00:00 9,7 -3,3 4 2 SSW 20 0,0
14.03.2019 19:00:00 12,5 -3,4 9 5 WNW 19 -
14.03.2019 18:00:00 14,9 -3,0 9 5 W 20 0,0
14.03.2019 17:00:00 16,0 -4,0 9 5 NNW 20 0,0
14.03.2019 16:00:00 16,1 -6,9 13 7 NNW 20 -
14.03.2019 15:00:00 15,5 -6,2 11 6 NW 20 0,0
14.03.2019 14:00:00 13,7 -3,1 9 5 W 20 0,0
14.03.2019 13:00:00 12,4 -3,4 9 5 N 20 -
14.03.2019 12:00:00 11,3 -1,8 11 6 NNE 20 0,0
14.03.2019 11:00:00 9,1 -2,5 8 4 NNE 20 0,0
14.03.2019 10:00:00 5,0 -1,3 5 3 SE 20 -
14.03.2019 09:00:00 -0,2 -2,9 2 1 S 20 0,0
14.03.2019 08:00:00 -3,5 -4,9 4 2 ENE 20 0,0
14.03.2019 07:00:00 -3,4 -5,3 2 1 SSE 20 -
14.03.2019 06:00:00 -3,0 -5,0 2 1 E 19 0,0
14.03.2019 05:00:00 -2,3 -4,6 2 1 ESE 20 0,0
14.03.2019 04:00:00 -1,8 -4,6 4 2 NE 20 -
14.03.2019 03:00:00 -1,1 -3,9 2 1 E 20 0,0
14.03.2019 02:00:00 -0,2 -3,7 2 1 NW 20 0,0
14.03.2019 01:00:00 0,9 -3,6 9 5 WSW 20 -
14.03.2019 00:00:00 1,4 -3,9 2 1 WSW 20 0,0
13.03.2019 23:00:00 2,8 -3,6 2 1 W 20 0,0
13.03.2019 22:00:00 3,6 -3,2 9 5 NNW 20 -
13.03.2019 21:00:00 4,6 -3,9 9 5 NNW 20 0,0
13.03.2019 20:00:00 5,5 -3,6 11 6 NNW 20 0,0
13.03.2019 19:00:00 7,2 -3,1 13 7 NNW 20 -
13.03.2019 18:00:00 8,8 -3,8 13 7 N 20 0,0
13.03.2019 17:00:00 10,4 -2,6 13 7 NW 20 0,0
13.03.2019 16:00:00 - - - - - - -
13.03.2019 15:00:00 10,0 -2,7 15 8 NNW 20 0,0
13.03.2019 14:00:00 10,2 -2,8 11 6 NNW 19 0,0
13.03.2019 13:00:00 10,1 -2,6 11 6 NNW 20 -
13.03.2019 12:00:00 8,6 -2,1 15 8 NNW 20 0,0
13.03.2019 11:00:00 8,1 -2,0 13 7 N 19 0,0
13.03.2019 10:00:00 4,7 -2,2 13 7 NW 20 -

tt = temperature
td = dewpoint
ff = wind speed
dd = wind direction
vv = visibility
rr = precipitation

Next stations